createdAt,value
2022-08-20T00:01:39.767Z,100574.84
2022-08-20T00:04:06.878Z,100575.03
2022-08-20T00:06:34.257Z,100578.22
2022-08-20T00:09:01.276Z,100581.31
2022-08-20T00:11:28.953Z,100578.94
2022-08-20T00:14:01.091Z,100574.72
2022-08-20T00:16:35.289Z,100576.03
2022-08-20T00:19:07.710Z,100583.56
2022-08-20T00:21:36.311Z,100590.81
2022-08-20T00:24:04.934Z,100584.94
2022-08-20T00:26:32.045Z,100580.41
2022-08-20T00:28:59.107Z,100587.63
2022-08-20T00:31:26.767Z,100583.34
2022-08-20T00:33:54.398Z,100587.72
2022-08-20T00:36:22.617Z,100589.50
2022-08-20T00:38:59.725Z,100592.06
2022-08-20T00:41:28.046Z,100581.50
2022-08-20T00:44:16.288Z,100581.81
2022-08-20T00:46:45.887Z,100580.34
2022-08-20T00:49:27.861Z,100580.63
2022-08-20T00:52:13.644Z,100587.94
2022-08-20T00:54:55.153Z,100589.84
2022-08-20T00:58:00.957Z,100588.13
2022-08-20T01:00:42.827Z,100586.13
2022-08-20T01:03:14.914Z,100590.97
2022-08-20T01:05:48.469Z,100590.59
2022-08-20T01:08:20.368Z,100591.56
2022-08-20T01:10:50.931Z,100589.47
2022-08-20T01:13:24.290Z,100594.34
2022-08-20T01:15:56.079Z,100597.28
2022-08-20T01:18:27.943Z,100592.78
2022-08-20T01:21:01.296Z,100594.69
2022-08-20T01:24:14.497Z,100589.13
2022-08-20T01:26:47.234Z,100592.41
2022-08-20T01:29:23.713Z,100587.72
2022-08-20T01:31:51.267Z,100592.97
2022-08-20T01:34:20.708Z,100591.97
2022-08-20T01:36:53.338Z,100594.16
2022-08-20T01:39:30.727Z,100591.97
2022-08-20T01:42:27.130Z,100593.25
2022-08-20T01:44:54.113Z,100595.44
2022-08-20T01:47:36.383Z,100597.53
2022-08-20T01:50:26.036Z,100603.13
2022-08-20T01:53:30.055Z,100597.34
2022-08-20T01:55:57.152Z,100595.72
2022-08-20T01:58:24.400Z,100602.25
2022-08-20T02:00:51.384Z,100600.94
2022-08-20T02:03:18.346Z,100602.59
2022-08-20T02:05:45.474Z,100605.81
2022-08-20T02:08:12.504Z,100606.72
2022-08-20T02:10:40.450Z,100610.22
2022-08-20T02:13:10.002Z,100613.59
2022-08-20T02:15:39.800Z,100603.88
2022-08-20T02:18:12.588Z,100615.25
2022-08-20T02:20:40.802Z,100612.41
2022-08-20T02:23:10.007Z,100608.75
2022-08-20T02:25:40.166Z,100619.28
2022-08-20T02:28:15.100Z,100629.91
2022-08-20T02:30:48.938Z,100619.84
2022-08-20T02:33:20.665Z,100626.53
2022-08-20T02:35:53.303Z,100627.72
2022-08-20T02:38:20.422Z,100631.09
2022-08-20T02:40:48.995Z,100631.91
2022-08-20T02:43:18.347Z,100632.47
2022-08-20T02:45:45.872Z,100630.91
2022-08-20T02:48:21.209Z,100636.84
2022-08-20T02:51:03.758Z,100635.09
2022-08-20T02:53:37.983Z,100629.25
2022-08-20T02:56:11.215Z,100631.09
2022-08-20T02:58:40.366Z,100627.44
2022-08-20T03:01:18.119Z,100628.63
2022-08-20T03:03:45.668Z,100629.81
2022-08-20T03:06:14.482Z,100616.16
2022-08-20T03:08:42.787Z,100619.91
2022-08-20T03:11:10.197Z,100630.78
2022-08-20T03:13:37.577Z,100619.00
2022-08-20T03:16:05.471Z,100629.34
2022-08-20T03:18:42.242Z,100621.41
2022-08-20T03:21:11.412Z,100621.34
2022-08-20T03:23:43.452Z,100624.53
2022-08-20T03:26:13.816Z,100618.75
2022-08-20T03:28:42.495Z,100615.34
2022-08-20T03:31:12.654Z,100608.16
2022-08-20T03:33:48.864Z,100607.69
2022-08-20T03:36:28.614Z,100602.50
2022-08-20T03:39:04.353Z,100602.50
2022-08-20T03:41:32.233Z,100604.16
2022-08-20T03:43:59.252Z,100606.16
2022-08-20T03:46:26.265Z,100605.84
2022-08-20T03:48:56.607Z,100603.50
2022-08-20T03:51:34.350Z,100607.81
2022-08-20T03:54:19.223Z,100606.63
2022-08-20T03:56:46.187Z,100609.84
2022-08-20T03:59:13.208Z,100614.69
2022-08-20T04:01:46.150Z,100620.34
2022-08-20T04:04:15.236Z,100615.69
2022-08-20T04:06:43.676Z,100608.38
2022-08-20T04:09:12.268Z,100605.06
2022-08-20T04:11:41.228Z,100611.22
2022-08-20T04:14:09.338Z,100604.03
2022-08-20T04:16:39.447Z,100595.78
2022-08-20T04:19:07.401Z,100609.81
2022-08-20T04:21:36.659Z,100614.38
2022-08-20T04:24:06.099Z,100619.44
2022-08-20T04:26:36.263Z,100618.44
2022-08-20T04:29:04.852Z,100621.81
2022-08-20T04:31:35.129Z,100621.00
2022-08-20T04:34:07.829Z,100621.13
2022-08-20T04:36:35.459Z,100630.66
2022-08-20T04:39:02.489Z,100626.28
2022-08-20T04:41:29.494Z,100638.09
2022-08-20T04:43:58.211Z,100614.91
2022-08-20T04:46:28.692Z,100618.75
2022-08-20T04:48:57.423Z,100615.00
2022-08-20T04:51:25.076Z,100618.97
2022-08-20T04:53:56.509Z,100614.25
2022-08-20T04:56:31.054Z,100625.03
2022-08-20T04:59:02.013Z,100619.81
2022-08-20T05:01:29.597Z,100627.13
2022-08-20T05:03:58.732Z,100632.63
2022-08-20T05:06:31.662Z,100631.91
2022-08-20T05:09:00.995Z,100638.41
2022-08-20T05:11:33.744Z,100641.53
2022-08-20T05:14:02.755Z,100648.75
2022-08-20T05:16:29.816Z,100648.06
2022-08-20T05:18:56.826Z,100655.75
2022-08-20T05:21:23.822Z,100650.28
2022-08-20T05:23:50.832Z,100654.16
2022-08-20T05:26:20.139Z,100658.75
2022-08-20T05:28:54.459Z,100666.78
2022-08-20T05:31:32.559Z,100661.34
2022-08-20T05:34:10.038Z,100659.53
2022-08-20T05:36:45.317Z,100656.47
2022-08-20T05:39:15.133Z,100660.75
2022-08-20T05:41:42.281Z,100665.63
2022-08-20T05:44:13.417Z,100674.41
2022-08-20T05:46:44.040Z,100676.69
2022-08-20T05:49:19.971Z,100673.84
2022-08-20T05:51:49.342Z,100669.09
2022-08-20T05:54:16.450Z,100666.06
2022-08-20T05:56:43.478Z,100667.72
2022-08-20T05:59:13.889Z,100664.47
2022-08-20T06:01:42.848Z,100660.41
2022-08-20T06:04:31.901Z,100669.56
2022-08-20T06:07:08.063Z,100676.44
2022-08-20T06:09:36.216Z,100682.31
2022-08-20T06:12:07.718Z,100679.09
2022-08-20T06:14:35.719Z,100678.72
2022-08-20T06:17:15.259Z,100683.09
2022-08-20T06:19:44.886Z,100684.03
2022-08-20T06:22:21.155Z,100683.84
2022-08-20T06:24:51.078Z,100673.19
2022-08-20T06:27:18.642Z,100678.22
2022-08-20T06:29:45.779Z,100677.06
2022-08-20T06:32:13.039Z,100679.63
2022-08-20T06:34:50.070Z,100675.94
2022-08-20T06:37:31.067Z,100687.94
2022-08-20T06:40:19.431Z,100677.22
2022-08-20T06:42:48.726Z,100677.97
2022-08-20T06:45:25.410Z,100683.63
2022-08-20T06:47:57.405Z,100699.44
2022-08-20T06:50:44.471Z,100687.91
2022-08-20T06:53:20.518Z,100694.25
2022-08-20T06:55:56.826Z,100702.88
2022-08-20T06:58:32.722Z,100705.91
2022-08-20T07:01:11.205Z,100714.72
2022-08-20T07:03:54.751Z,100706.13
2022-08-20T07:06:27.252Z,100711.47
2022-08-20T07:08:55.726Z,100705.88
2022-08-20T07:11:27.832Z,100709.28
2022-08-20T07:13:58.076Z,100717.13
2022-08-20T07:16:25.752Z,100721.72
2022-08-20T07:18:52.774Z,100723.78
2022-08-20T07:21:19.831Z,100725.38
2022-08-20T07:23:49.410Z,100720.69
2022-08-20T07:26:17.618Z,100724.53
2022-08-20T07:28:45.148Z,100731.41
2022-08-20T07:31:31.463Z,100738.63
2022-08-20T07:34:00.269Z,100737.25
2022-08-20T07:36:28.126Z,100737.25
2022-08-20T07:38:56.934Z,100740.56
2022-08-20T07:41:24.499Z,100736.19
2022-08-20T07:43:51.619Z,100735.47
2022-08-20T07:46:21.515Z,100746.00
2022-08-20T07:48:50.242Z,100745.00
2022-08-20T07:51:22.378Z,100749.66
2022-08-20T07:53:51.966Z,100744.06
2022-08-20T07:56:24.369Z,100745.16
2022-08-20T07:58:55.534Z,100749.88
2022-08-20T08:01:31.819Z,100744.88
2022-08-20T08:04:00.617Z,100749.09
2022-08-20T08:06:31.400Z,100743.13
2022-08-20T08:09:11.301Z,100752.34
2022-08-20T08:11:50.221Z,100737.81
2022-08-20T08:14:23.583Z,100746.75
2022-08-20T08:16:52.951Z,100755.31
2022-08-20T08:19:20.903Z,100753.88
2022-08-20T08:21:49.410Z,100759.91
2022-08-20T08:24:21.681Z,100761.28
2022-08-20T08:26:50.146Z,100760.97
2022-08-20T08:29:17.469Z,100761.38
2022-08-20T08:31:44.697Z,100755.34
2022-08-20T08:34:12.958Z,100773.22
2022-08-20T08:36:40.632Z,100763.53
2022-08-20T08:39:07.906Z,100764.28
2022-08-20T08:41:48.345Z,100766.63
2022-08-20T08:44:30.799Z,100766.09
2022-08-20T08:47:18.134Z,100759.88
2022-08-20T08:49:47.328Z,100763.59
2022-08-20T08:52:32.774Z,100768.41
2022-08-20T08:55:07.358Z,100761.28
2022-08-20T08:57:34.348Z,100766.59
2022-08-20T09:00:13.836Z,100764.56
2022-08-20T09:02:53.072Z,100774.44
2022-08-20T09:05:23.516Z,100772.13
2022-08-20T09:07:54.263Z,100774.19
2022-08-20T09:10:23.197Z,100782.59
2022-08-20T09:12:52.147Z,100779.03
2022-08-20T09:15:21.164Z,100780.88
2022-08-20T09:17:48.308Z,100789.28
2022-08-20T09:20:15.384Z,100782.59
2022-08-20T09:22:42.385Z,100778.94
2022-08-20T09:25:09.677Z,100789.59
2022-08-20T09:27:36.731Z,100794.75
2022-08-20T09:30:07.411Z,100781.94
2022-08-20T09:32:34.580Z,100788.41
2022-08-20T09:35:04.027Z,100787.13
2022-08-20T09:37:37.485Z,100790.56
2022-08-20T09:40:08.723Z,100791.63
2022-08-20T09:42:41.282Z,100795.88
2022-08-20T09:45:11.580Z,100795.13
2022-08-20T09:47:55.169Z,100790.91
2022-08-20T09:50:30.527Z,100795.88
2022-08-20T09:53:00.896Z,100789.38
2022-08-20T09:55:43.328Z,100792.22
2022-08-20T09:58:45.346Z,100790.50
2022-08-20T10:01:16.840Z,100787.28
2022-08-20T10:03:48.119Z,100789.25
2022-08-20T10:06:19.789Z,100790.31
2022-08-20T10:08:48.845Z,100785.22
2022-08-20T10:11:18.086Z,100781.72
2022-08-20T10:13:45.685Z,100788.50
2022-08-20T10:16:13.162Z,100784.09
2022-08-20T10:18:40.623Z,100785.06
2022-08-20T10:21:12.072Z,100779.22
2022-08-20T10:23:39.094Z,100782.47
2022-08-20T10:26:12.489Z,100783.13
2022-08-20T10:28:39.807Z,100791.44
2022-08-20T10:31:09.274Z,100783.03
2022-08-20T10:33:38.360Z,100786.81
2022-08-20T10:36:17.241Z,100790.06
2022-08-20T10:38:45.453Z,100788.13
2022-08-20T10:41:12.502Z,100784.75
2022-08-20T10:43:39.674Z,100782.72
2022-08-20T10:46:07.002Z,100788.78
2022-08-20T10:48:34.124Z,100796.50
2022-08-20T10:51:01.247Z,100795.16
2022-08-20T10:53:28.305Z,100790.91
2022-08-20T10:55:57.560Z,100796.81
2022-08-20T10:58:27.016Z,100799.97
2022-08-20T11:01:04.977Z,100798.13
2022-08-20T11:03:32.046Z,100798.31
2022-08-20T11:05:59.040Z,100800.63
2022-08-20T11:08:34.485Z,100803.59
2022-08-20T11:11:05.489Z,100801.25
2022-08-20T11:13:34.902Z,100801.56
2022-08-20T11:16:03.760Z,100804.59
2022-08-20T11:18:31.421Z,100810.28
2022-08-20T11:20:58.639Z,100813.28
2022-08-20T11:23:25.681Z,100812.69
2022-08-20T11:25:52.797Z,100815.97
2022-08-20T11:28:31.197Z,100802.28
2022-08-20T11:30:58.668Z,100802.91
2022-08-20T11:33:25.683Z,100815.84
2022-08-20T11:35:52.817Z,100812.75
2022-08-20T11:38:19.915Z,100803.94
2022-08-20T11:40:47.619Z,100811.84
2022-08-20T11:43:17.001Z,100810.78
2022-08-20T11:45:53.121Z,100814.19
2022-08-20T11:48:20.415Z,100816.25
2022-08-20T11:50:49.356Z,100812.13
2022-08-20T11:53:16.433Z,100821.34
2022-08-20T11:55:44.505Z,100821.09
2022-08-20T11:58:12.026Z,100824.47
2022-08-20T12:00:39.548Z,100821.31
2022-08-20T12:03:09.237Z,100819.47
2022-08-20T12:05:43.645Z,100813.75
2022-08-20T12:08:27.727Z,100818.13
2022-08-20T12:11:01.339Z,100822.31
2022-08-20T12:13:48.827Z,100819.94
2022-08-20T12:16:18.839Z,100813.25
2022-08-20T12:18:48.200Z,100819.84
2022-08-20T12:21:16.052Z,100812.59
2022-08-20T12:23:43.043Z,100817.09
2022-08-20T12:26:10.109Z,100810.56
2022-08-20T12:28:37.574Z,100817.56
2022-08-20T12:31:04.995Z,100815.53
2022-08-20T12:33:32.000Z,100807.72
2022-08-20T12:35:59.407Z,100816.84
2022-08-20T12:38:26.538Z,100822.53
2022-08-20T12:40:53.568Z,100822.53
2022-08-20T12:43:24.690Z,100824.63
2022-08-20T12:45:52.319Z,100826.94
2022-08-20T12:48:20.785Z,100832.31
2022-08-20T12:50:49.855Z,100828.63
2022-08-20T12:53:17.041Z,100825.78
2022-08-20T12:55:44.174Z,100825.22
2022-08-20T12:58:12.177Z,100831.97
2022-08-20T13:00:50.350Z,100829.06
2022-08-20T13:03:19.952Z,100826.97
2022-08-20T13:05:47.667Z,100828.06
2022-08-20T13:08:14.770Z,100830.06
2022-08-20T13:10:46.763Z,100832.00
2022-08-20T13:13:17.489Z,100829.72
2022-08-20T13:15:50.191Z,100829.59
2022-08-20T13:18:17.925Z,100831.00
2022-08-20T13:20:45.079Z,100834.78
2022-08-20T13:23:12.098Z,100833.63
2022-08-20T13:25:39.113Z,100833.28
2022-08-20T13:28:06.159Z,100836.22
2022-08-20T13:30:38.390Z,100831.59
2022-08-20T13:33:05.416Z,100834.75
2022-08-20T13:35:32.508Z,100841.63
2022-08-20T13:37:59.610Z,100841.94
2022-08-20T13:40:28.349Z,100837.78
2022-08-20T13:42:55.590Z,100832.09
2022-08-20T13:45:22.652Z,100837.03
2022-08-20T13:47:54.670Z,100838.19
2022-08-20T13:50:25.346Z,100845.53
2022-08-20T13:52:52.431Z,100844.00
2022-08-20T13:55:23.942Z,100844.69
2022-08-20T13:57:51.843Z,100844.19
2022-08-20T14:00:32.326Z,100838.31
2022-08-20T14:03:06.554Z,100845.56
2022-08-20T14:05:34.645Z,100844.19
2022-08-20T14:08:23.722Z,100845.91
2022-08-20T14:10:51.803Z,100841.84
2022-08-20T14:13:23.935Z,100838.84
2022-08-20T14:15:51.855Z,100834.81
2022-08-20T14:18:19.800Z,100831.97
2022-08-20T14:20:46.870Z,100831.69
2022-08-20T14:23:15.630Z,100833.97
2022-08-20T14:25:48.133Z,100828.84
2022-08-20T14:28:23.292Z,100841.78
2022-08-20T14:30:53.492Z,100838.66
2022-08-20T14:33:23.559Z,100841.50
2022-08-20T14:35:51.779Z,100832.41
2022-08-20T14:38:18.766Z,100836.63
2022-08-20T14:40:45.945Z,100836.47
2022-08-20T14:43:12.963Z,100836.53
2022-08-20T14:45:39.959Z,100832.84
2022-08-20T14:48:09.208Z,100827.44
2022-08-20T14:50:37.628Z,100832.75
2022-08-20T14:53:05.443Z,100839.84
2022-08-20T14:55:37.741Z,100838.19
2022-08-20T14:58:11.145Z,100835.88
2022-08-20T15:00:39.653Z,100836.19
2022-08-20T15:03:06.895Z,100838.34
2022-08-20T15:05:34.941Z,100827.00
2022-08-20T15:08:07.379Z,100833.84
2022-08-20T15:10:34.817Z,100832.19
2022-08-20T15:13:02.619Z,100830.69
2022-08-20T15:15:30.042Z,100837.03
2022-08-20T15:18:02.372Z,100843.72
2022-08-20T15:20:33.546Z,100850.34
2022-08-20T15:23:01.672Z,100847.03
2022-08-20T15:25:36.621Z,100844.88
2022-08-20T15:28:09.017Z,100849.19
2022-08-20T15:30:39.963Z,100852.06
2022-08-20T15:33:09.079Z,100853.97
2022-08-20T15:35:36.669Z,100858.94
2022-08-20T15:38:03.825Z,100864.16
2022-08-20T15:40:33.415Z,100865.63
2022-08-20T15:43:03.856Z,100861.41
2022-08-20T15:45:32.520Z,100868.94
2022-08-20T15:48:20.264Z,100867.06
2022-08-20T15:51:37.948Z,100863.53
2022-08-20T15:54:24.884Z,100859.09
2022-08-20T15:57:14.022Z,100849.75
2022-08-20T16:00:40.483Z,100854.81
2022-08-20T16:03:58.868Z,100854.25
2022-08-20T16:06:30.857Z,100855.44
2022-08-20T16:09:43.349Z,100853.72
2022-08-20T16:12:25.396Z,100858.66
2022-08-20T16:15:00.041Z,100852.41
2022-08-20T16:18:18.570Z,100856.63
2022-08-20T16:20:51.478Z,100862.69
2022-08-20T16:23:26.849Z,100863.31
2022-08-20T16:26:40.482Z,100868.28
2022-08-20T16:29:31.588Z,100870.09
2022-08-20T16:32:19.221Z,100870.94
2022-08-20T16:35:03.162Z,100874.31
2022-08-20T16:37:45.068Z,100879.66
2022-08-20T16:40:44.091Z,100880.25
2022-08-20T16:43:36.723Z,100876.59
2022-08-20T16:46:20.015Z,100886.88
2022-08-20T16:49:08.259Z,100884.31
2022-08-20T16:51:52.203Z,100889.75
2022-08-20T16:54:29.487Z,100882.69
2022-08-20T16:57:04.958Z,100887.78
2022-08-20T16:59:33.499Z,100886.09
2022-08-20T17:02:10.262Z,100888.22
2022-08-20T17:04:59.004Z,100883.38
2022-08-20T17:07:51.192Z,100885.16
2022-08-20T17:10:35.850Z,100882.31
2022-08-20T17:13:19.103Z,100881.16
2022-08-20T17:16:20.174Z,100881.16
2022-08-20T17:18:53.794Z,100877.63
2022-08-20T17:21:38.061Z,100881.81
2022-08-20T17:24:29.089Z,100878.81
2022-08-20T17:27:14.837Z,100884.44
2022-08-20T17:30:04.766Z,100884.31
2022-08-20T17:32:31.928Z,100881.66
2022-08-20T17:35:02.233Z,100884.91
2022-08-20T17:37:40.707Z,100882.25
2022-08-20T17:40:46.079Z,100888.88
2022-08-20T17:43:31.550Z,100881.41
2022-08-20T17:46:05.226Z,100894.47
2022-08-20T17:48:48.610Z,100892.47
2022-08-20T17:51:28.014Z,100894.28
2022-08-20T17:54:13.348Z,100889.81
2022-08-20T17:56:44.588Z,100889.44
2022-08-20T18:00:00.412Z,100897.25
2022-08-20T18:02:34.964Z,100913.16
2022-08-20T18:05:05.835Z,100913.31
2022-08-20T18:08:14.698Z,100908.53
2022-08-20T18:11:13.651Z,100910.50
2022-08-20T18:14:08.179Z,100918.78
2022-08-20T18:16:58.334Z,100917.34
2022-08-20T18:19:48.178Z,100915.88
2022-08-20T18:22:30.753Z,100914.13
2022-08-20T18:25:34.726Z,100915.22
2022-08-20T18:28:15.188Z,100912.16
2022-08-20T18:31:00.369Z,100914.41
2022-08-20T18:33:39.307Z,100920.78
2022-08-20T18:36:24.378Z,100915.28
2022-08-20T18:39:24.400Z,100918.97
2022-08-20T18:42:09.046Z,100914.00
2022-08-20T18:44:51.094Z,100913.34
2022-08-20T18:47:46.385Z,100915.94
2022-08-20T18:50:48.803Z,100922.09
2022-08-20T18:53:33.903Z,100926.03
2022-08-20T18:56:14.592Z,100924.19
2022-08-20T18:59:14.967Z,100932.16
2022-08-20T19:01:46.431Z,100924.78
2022-08-20T19:04:31.908Z,100926.09
2022-08-20T19:07:10.108Z,100933.06
2022-08-20T19:10:27.472Z,100925.66
2022-08-20T19:13:46.035Z,100927.25
2022-08-20T19:16:41.621Z,100932.31
2022-08-20T19:19:23.928Z,100928.78
2022-08-20T19:21:52.327Z,100934.09
2022-08-20T19:24:33.488Z,100931.09
2022-08-20T19:27:08.797Z,100939.19
2022-08-20T19:29:49.684Z,100947.53
2022-08-20T19:32:29.007Z,100935.81
2022-08-20T19:35:06.427Z,100940.56
2022-08-20T19:37:51.075Z,100945.69
2022-08-20T19:40:38.838Z,100938.13
2022-08-20T19:43:15.271Z,100938.28
2022-08-20T19:45:54.395Z,100942.59
2022-08-20T19:49:08.962Z,100942.34
2022-08-20T19:52:29.166Z,100950.84
2022-08-20T19:55:02.826Z,100947.00
2022-08-20T19:57:30.818Z,100945.38
2022-08-20T20:00:11.552Z,100946.34
2022-08-20T20:02:41.439Z,100943.63
2022-08-20T20:05:11.169Z,100943.16
2022-08-20T20:07:45.128Z,100952.13
2022-08-20T20:10:35.009Z,100950.78
2022-08-20T20:13:14.814Z,100955.91
2022-08-20T20:15:42.511Z,100944.94
2022-08-20T20:18:10.252Z,100946.66
2022-08-20T20:20:57.827Z,100941.03
2022-08-20T20:23:45.743Z,100941.13
2022-08-20T20:26:19.855Z,100939.97
2022-08-20T20:29:00.527Z,100943.19
2022-08-20T20:31:41.343Z,100939.03
2022-08-20T20:34:15.057Z,100937.72
2022-08-20T20:36:47.727Z,100943.22
2022-08-20T20:39:37.369Z,100944.19
2022-08-20T20:42:10.363Z,100944.53
2022-08-20T20:44:44.453Z,100951.84
2022-08-20T20:47:37.906Z,100950.38
2022-08-20T20:50:11.546Z,100949.84
2022-08-20T20:52:54.393Z,100941.88
2022-08-20T20:55:22.849Z,100952.34
2022-08-20T20:57:51.476Z,100947.38
2022-08-20T21:00:23.323Z,100945.72
2022-08-20T21:02:50.591Z,100944.56
2022-08-20T21:05:25.001Z,100939.25
2022-08-20T21:08:03.096Z,100936.88
2022-08-20T21:10:35.327Z,100944.56
2022-08-20T21:13:05.556Z,100936.22
2022-08-20T21:15:35.183Z,100941.25
2022-08-20T21:18:07.827Z,100936.22
2022-08-20T21:20:35.590Z,100939.06
2022-08-20T21:23:02.984Z,100937.88
2022-08-20T21:25:32.923Z,100939.28
2022-08-20T21:28:00.460Z,100935.63
2022-08-20T21:30:28.148Z,100939.59
2022-08-20T21:32:55.577Z,100936.63
2022-08-20T21:35:22.874Z,100932.97
2022-08-20T21:37:50.082Z,100931.81
2022-08-20T21:40:18.168Z,100937.53
2022-08-20T21:42:48.773Z,100929.69
2022-08-20T21:45:19.622Z,100931.06
2022-08-20T21:47:48.991Z,100932.38
2022-08-20T21:50:19.705Z,100920.28
2022-08-20T21:52:59.236Z,100913.69
2022-08-20T21:55:38.783Z,100920.13
2022-08-20T21:58:07.286Z,100920.13
2022-08-20T22:01:01.769Z,100909.69
2022-08-20T22:03:38.779Z,100911.69
2022-08-20T22:06:12.369Z,100912.88
2022-08-20T22:08:40.162Z,100916.69
2022-08-20T22:11:09.929Z,100914.03
2022-08-20T22:13:37.397Z,100913.53
2022-08-20T22:16:10.814Z,100911.56
2022-08-20T22:18:38.366Z,100914.91
2022-08-20T22:21:11.045Z,100917.53
2022-08-20T22:23:40.126Z,100915.56
2022-08-20T22:26:08.511Z,100915.38
2022-08-20T22:28:36.777Z,100918.03
2022-08-20T22:31:04.983Z,100918.88
2022-08-20T22:33:33.883Z,100918.72
2022-08-20T22:36:02.244Z,100914.72
2022-08-20T22:38:29.300Z,100916.88
2022-08-20T22:40:56.318Z,100922.53
2022-08-20T22:43:24.198Z,100913.22
2022-08-20T22:46:00.790Z,100918.38
2022-08-20T22:48:28.813Z,100915.56
2022-08-20T22:50:57.730Z,100926.19
2022-08-20T22:53:27.350Z,100924.84
2022-08-20T22:55:55.281Z,100924.50
2022-08-20T22:58:30.996Z,100933.44
2022-08-20T23:00:59.861Z,100918.84
2022-08-20T23:03:39.189Z,100921.84
2022-08-20T23:06:09.392Z,100924.69
2022-08-20T23:08:37.836Z,100929.16
2022-08-20T23:11:05.062Z,100924.84
2022-08-20T23:13:32.128Z,100928.13
2022-08-20T23:15:59.570Z,100931.44
2022-08-20T23:18:26.574Z,100930.28
2022-08-20T23:20:57.657Z,100925.00
2022-08-20T23:23:27.199Z,100925.50
2022-08-20T23:25:54.923Z,100927.03
2022-08-20T23:28:25.589Z,100925.66
2022-08-20T23:30:53.104Z,100926.81
2022-08-20T23:33:20.110Z,100925.81
2022-08-20T23:35:48.145Z,100924.47
2022-08-20T23:38:15.413Z,100921.84
2022-08-20T23:40:43.151Z,100929.13
2022-08-20T23:43:10.643Z,100924.31
2022-08-20T23:45:40.192Z,100928.66
2022-08-20T23:48:08.273Z,100927.50
2022-08-20T23:50:35.934Z,100917.88
2022-08-20T23:53:04.424Z,100930.97
2022-08-20T23:55:31.814Z,100929.31
2022-08-20T23:57:58.852Z,100929.63
